Latest Weather Observations for Rockhampton

IDQ60801

Issued at 11:35 pm EST Wednesday 26 November 2014 (issued every 30 minutes, with the page automatically refreshed every 10 minutes)

About weather observations | Map of weather stations | Latest weather observations for QLD | Other Formats
Station Details ID: 039083 Name: ROCKHAMPTON AERO Lat: -23.38 Lon: 150.48 Height: 10.4 m
Data from the previous 72 hours. | See also: Recent months at Rockhampton
Date/Time
EST
Temp
°C
App
Temp
°C
Dew
Point
Rel
Hum
%
Delta-T
°C
Wind Press
QNH
hPa
Press
MSL
hPa
Rain
since 9 am
mm
Dir
 
Spd
km/h
Gust
km/h
Spd
kts
Gust
kts
26/11:30pm 23.9 25.6 19.4 76 2.9 SSE 9 13 5 7 1015.4 - 0.0
26/11:00pm 24.3 26.2 19.0 72 3.4 E 7 11 4 6 1015.2 - 0.0
26/10:30pm 24.4 26.0 19.2 73 3.3 ENE 9 13 5 7 1015.4 - 0.0
26/10:00pm 24.7 26.4 19.4 72 3.4 ENE 9 17 5 9 1015.4 - 0.0
26/09:30pm 24.9 26.7 19.5 72 3.5 E 9 17 5 9 1015.3 - 0.0
26/09:00pm 25.1 26.4 19.3 70 3.7 ENE 11 17 6 9 1015.4 1015.3 0.0
26/08:30pm 25.0 26.8 19.6 72 3.5 E 9 17 5 9 1015.1 - 0.0
26/08:00pm 25.3 26.6 19.2 69 3.9 E 11 19 6 10 1015.0 - 0.0
26/07:30pm 25.6 27.3 20.1 71 3.6 ENE 11 19 6 10 1014.7 - 0.0
26/07:00pm 25.9 28.1 20.4 71 3.6 E 9 15 5 8 1014.4 - 0.0
26/06:30pm 26.4 26.2 18.6 62 5.0 ENE 17 22 9 12 1013.7 - 0.0
26/06:00pm 27.2 27.9 18.8 60 5.4 E 13 20 7 11 1013.3 1013.2 0.0
26/05:30pm 28.3 27.8 17.9 53 6.6 ENE 17 24 9 13 1012.7 - 0.0
26/05:00pm 28.7 27.7 17.5 50 7.1 E 19 28 10 15 1012.7 - 0.0
26/04:30pm 29.5 29.0 17.7 49 7.5 ENE 17 28 9 15 1012.3 - 0.0
26/04:00pm 29.4 28.2 17.4 48 7.6 NE 20 26 11 14 1012.3 - 0.0
26/03:30pm 30.3 29.5 17.0 44 8.4 E 17 28 9 15 1012.3 - 0.0
26/03:00pm 30.5 29.3 16.0 41 9.0 E 17 20 9 11 1012.5 1012.4 0.0
26/02:30pm 31.3 30.2 16.3 40 9.4 ENE 17 24 9 13 1012.6 - 0.0
26/02:00pm 31.1 30.3 16.2 40 9.3 E 15 26 8 14 1012.8 - 0.0
26/01:30pm 31.6 30.8 15.2 37 10.1 E 13 20 7 11 1013.1 - 0.0
26/01:00pm 30.6 28.6 16.4 42 8.9 NNE 22 32 12 17 1013.3 - 0.0
26/12:30pm 32.0 30.9 17.4 41 9.3 NE 19 26 10 14 1013.6 - 0.0
26/12:00pm 31.7 31.2 16.8 40 9.4 NE 15 20 8 11 1013.9 1013.8 0.0
26/11:30am 30.4 29.4 16.7 43 8.6 ENE 17 24 9 13 1014.3 - 0.0
26/11:00am 29.4 28.9 17.8 49 7.4 E 17 22 9 12 1014.5 - 0.0
26/10:30am 29.2 29.6 18.1 51 7.1 ENE 13 24 7 13 1014.9 - 0.0
26/10:00am 28.2 29.2 19.4 59 5.7 E 13 20 7 11 1015.0 - 0.0
26/09:30am 28.6 28.5 19.5 58 5.9 E 19 30 10 16 1015.1 - 0.0
26/09:00am 28.6 30.2 19.9 59 5.7 ENE 11 17 6 9 1015.3 1015.2 0.0
26/08:30am 28.5 30.5 20.8 63 5.1 E 11 26 6 14 1015.3 - 0.0
26/08:00am 27.4 30.7 21.9 72 3.7 E 7 13 4 7 1015.3 - 0.0
26/07:30am 26.9 29.7 22.3 76 3.1 SE 11 13 6 7 1015.3 - 0.0
26/07:00am 24.7 28.4 22.6 88 1.4 ESE 7 9 4 5 1015.2 - 0.0
26/06:30am 25.1 28.7 22.3 84 1.9 ESE 7 9 4 5 1014.8 - 0.0
26/06:00am 24.5 27.6 22.1 86 1.6 ESE 9 11 5 6 1014.5 1014.4 0.0
26/05:30am 23.6 26.8 22.3 92 0.9 ESE 9 11 5 6 1014.1 - 0.0
26/05:00am 23.3 26.9 22.1 93 0.8 ENE 6 7 3 4 1013.9 - 0.0
26/04:30am 23.6 26.7 22.1 91 1.0 E 9 15 5 8 1013.7 - 0.0
26/04:00am 23.5 27.1 22.0 91 1.0 SE 6 9 3 5 1013.4 - 0.0
26/03:30am 23.3 26.4 22.1 93 0.8 SSE 9 13 5 7 1013.2 - 0.0
26/03:00am 24.0 27.1 22.2 90 1.2 NNW 9 11 5 6 1012.9 1012.8 0.0
26/02:30am 24.1 28.9 22.2 89 1.3 CALM 0 2 0 1 1012.8 - 0.0
26/02:00am 23.8 27.7 22.5 92 0.9 WSW 6 9 3 5 1012.9 - 0.0
26/01:30am 24.2 28.9 22.6 91 1.1 N 2 7 1 4 1012.9 - 0.0
26/01:00am 24.5 27.6 22.1 86 1.6 N 9 13 5 7 1013.0 - 0.0
26/12:30am 24.6 27.7 22.2 86 1.6 N 9 11 5 6 1013.3 - 0.0
26/12:00am 25.0 28.1 22.2 84 1.9 NNE 9 13 5 7 1013.8 1013.7 0.0
 
Date/Time
EST
Temp
°C
App
Temp
°C
Dew
Point
Rel
Hum
%
Delta-T
°C
Wind Press
QNH
hPa
Press
MSL
hPa
Rain
since 9 am
mm
Dir
 
Spd
km/h
Gust
km/h
Spd
kts
Gust
kts
25/11:30pm 25.3 27.9 22.0 82 2.2 N 11 15 6 8 1014.0 - 0.0
25/11:00pm 24.6 28.9 21.9 85 1.8 ENE 2 7 1 4 1014.6 - 0.0
25/10:30pm 24.6 27.7 21.4 82 2.1 SW 7 11 4 6 1014.9 - 0.0
25/10:00pm 25.5 29.3 21.7 79 2.5 NNE 4 11 2 6 1014.9 - 0.0
25/09:30pm 25.3 28.2 21.8 81 2.3 NNE 9 11 5 6 1014.6 - 0.0
25/09:00pm 25.2 28.4 21.7 81 2.3 NNE 7 13 4 7 1014.5 1014.4 0.0
25/08:30pm 26.1 28.9 21.6 76 3.0 ENE 9 13 5 7 1014.2 - 0.0
25/08:00pm 26.2 28.5 21.4 75 3.2 NE 11 19 6 10 1013.7 - 0.0
25/07:30pm 26.3 28.9 22.0 77 2.9 NNE 11 15 6 8 1013.4 - 0.0
25/07:00pm 26.7 28.0 20.9 70 3.8 NE 15 22 8 12 1013.0 - 0.0
25/06:30pm 27.3 28.9 20.8 67 4.3 NE 13 24 7 13 1012.7 - 0.0
25/06:00pm 27.9 28.2 20.5 64 4.9 NNE 19 26 10 14 1012.2 1012.1 0.0
25/05:30pm 29.2 28.4 20.1 58 6.0 NNE 24 32 13 17 1011.6 - 0.0
25/05:00pm 30.4 30.3 19.6 52 7.1 NE 19 28 10 15 1011.1 - 0.0
25/04:30pm 31.3 31.0 19.2 48 7.9 NE 19 32 10 17 1010.9 - 0.0
25/04:00pm 31.5 30.4 18.7 46 8.3 NNE 22 30 12 16 1011.1 - 0.0
25/03:30pm 31.8 30.6 18.5 45 8.6 NE 22 30 12 16 1011.2 - 0.0
25/03:00pm 32.9 32.5 18.0 41 9.6 NE 17 26 9 14 1011.4 1011.3 0.0
25/02:30pm 32.3 32.6 17.8 42 9.3 NNE 13 22 7 12 1011.5 - 0.0
25/02:00pm 33.1 32.0 14.3 32 11.5 ESE 13 20 7 11 1011.6 - 0.0
25/01:30pm 32.7 32.1 15.7 36 10.6 NNE 13 22 7 12 1012.1 - 0.0
25/01:00pm 32.9 32.0 15.8 35 10.7 ENE 15 22 8 12 1012.4 - 0.0
25/12:30pm 32.4 32.6 16.8 39 9.9 ENE 11 20 6 11 1012.7 - 0.0
25/12:00pm 32.4 32.4 17.2 40 9.7 ENE 13 20 7 11 1013.1 1013.0 0.0
25/11:30am 32.1 32.1 17.2 41 9.5 ENE 13 19 7 10 1013.8 - 0.0
25/11:00am 30.9 31.2 17.0 43 8.8 NNE 11 17 6 9 1014.1 - 0.0
25/10:30am 29.9 30.9 16.9 45 8.2 SW 7 13 4 7 1014.6 - 0.0
25/10:00am 29.9 31.0 17.0 45 8.1 SSE 7 15 4 8 1014.8 - 0.0
25/09:30am 29.4 30.0 16.8 46 7.9 ESE 9 17 5 9 1015.1 - 0.0
25/09:00am 29.1 30.2 18.1 51 7.0 E 9 15 5 8 1015.2 1015.1 0.0
25/08:30am 28.9 29.5 17.7 50 7.1 SE 11 17 6 9 1015.5 - 0.0
25/08:00am 28.3 29.6 18.5 55 6.3 ESE 9 17 5 9 1015.6 - 0.0
25/07:30am 26.7 29.0 19.9 66 4.4 SSE 7 15 4 8 1015.5 - 0.0
25/07:00am 25.3 28.1 20.4 74 3.2 S 6 11 3 6 1015.2 - 0.0
25/06:30am 24.5 27.1 20.5 78 2.6 SE 7 9 4 5 1015.0 - 0.0
25/06:00am 23.1 27.3 21.0 88 1.4 CALM 0 0 0 0 1014.5 1014.4 0.0
25/05:30am 21.4 25.1 20.0 92 0.9 CALM 0 0 0 0 1014.2 - 0.0
25/05:00am 21.9 25.6 19.9 88 1.3 CALM 0 0 0 0 1014.0 - 0.0
25/04:30am 22.2 25.6 20.2 88 1.3 E 2 6 1 3 1013.9 - 0.0
25/04:00am 22.3 24.7 20.0 87 1.5 SSW 7 9 4 5 1013.8 - 0.0
25/03:30am 21.7 23.6 19.8 89 1.2 SW 9 9 5 5 1013.7 - 0.0
25/03:00am 22.1 25.8 19.9 87 1.4 CALM 0 0 0 0 1013.4 1013.3 0.0
25/02:30am 22.6 25.6 20.0 85 1.7 SE 4 7 2 4 1013.5 - 0.0
25/02:00am 22.9 25.5 20.1 84 1.8 S 6 7 3 4 1013.8 - 0.0
25/01:30am 22.3 26.2 20.3 88 1.3 CALM 0 0 0 0 1013.9 - 0.0
25/01:00am 22.4 26.2 20.2 87 1.4 CALM 0 4 0 2 1014.0 - 0.0
25/12:30am 23.0 25.5 19.9 83 2.0 SSW 6 7 3 4 1014.4 - 0.0
25/12:00am 23.2 26.1 19.9 82 2.1 SSW 4 6 2 3 1014.8 1014.7 0.0
 
Date/Time
EST
Temp
°C
App
Temp
°C
Dew
Point
Rel
Hum
%
Delta-T
°C
Wind Press
QNH
hPa
Press
MSL
hPa
Rain
since 9 am
mm
Dir
 
Spd
km/h
Gust
km/h
Spd
kts
Gust
kts
24/11:30pm 23.0 25.8 19.6 81 2.2 SW 4 7 2 4 1015.1 - 0.0
24/11:00pm 23.4 27.0 19.8 80 2.3 CALM 0 0 0 0 1015.2 - 0.0
24/10:30pm 23.7 26.5 19.6 78 2.6 WSW 4 6 2 3 1015.3 - 0.0
24/10:00pm 24.1 26.8 20.2 79 2.5 N 6 11 3 6 1015.3 - 0.0
24/09:30pm 24.4 26.7 19.9 76 2.9 NE 7 15 4 8 1015.1 - 0.0
24/09:00pm 24.5 27.1 20.0 76 2.9 NE 6 7 3 4 1014.9 1014.8 0.0
24/08:30pm 24.8 26.7 19.7 73 3.3 NE 9 15 5 8 1014.6 - 0.0
24/08:00pm 25.1 26.1 19.5 71 3.6 NE 13 20 7 11 1014.3 - 0.0
24/07:30pm 25.4 26.0 19.5 70 3.8 NE 15 24 8 13 1014.0 - 0.0
24/07:00pm 25.6 26.2 19.4 68 4.0 NE 15 20 8 11 1013.8 - 0.0
24/06:30pm 26.2 25.5 18.3 61 5.0 NE 19 26 10 14 1013.3 - 0.0
24/06:00pm 27.1 25.8 17.2 54 6.2 ENE 20 32 11 17 1012.9 1012.8 0.0
24/05:30pm 28.1 27.4 17.3 52 6.8 NE 17 24 9 13 1012.4 - 0.0
24/05:00pm 29.0 27.6 17.1 48 7.5 NE 20 28 11 15 1012.1 - 0.0
24/04:30pm 29.7 28.5 16.2 44 8.4 E 17 20 9 11 1012.0 - 0.0
24/04:00pm 30.4 29.1 15.9 41 9.0 E 17 26 9 14 1012.0 - 0.0
24/03:30pm 29.9 28.5 16.5 44 8.4 ESE 19 26 10 14 1012.0 - 0.0
24/03:00pm 30.7 29.8 16.9 43 8.7 E 17 22 9 12 1012.2 1012.1 0.0
24/02:30pm 30.5 29.5 16.5 43 8.8 E 17 28 9 15 1012.6 - 0.0
24/02:00pm 31.9 31.4 17.9 43 9.0 NE 17 24 9 13 1013.1 - 0.0
24/01:30pm 30.3 29.2 17.2 45 8.3 E 19 26 10 14 1013.3 - 0.0
24/01:00pm 31.1 30.8 16.4 41 9.2 E 13 20 7 11 1013.6 - 0.0
24/12:30pm 31.0 30.1 16.9 42 8.9 E 17 24 9 13 1013.9 - 0.0
24/12:00pm 31.3 31.2 16.9 42 9.1 E 13 24 7 13 1014.3 1014.2 0.0
24/11:30am 31.6 31.1 16.9 41 9.3 E 15 26 8 14 1014.8 - 0.0
24/11:00am 30.7 30.0 17.3 44 8.5 E 17 22 9 12 1015.3 - 0.0
24/10:30am 31.4 30.6 17.0 42 9.1 E 17 20 9 11 1015.6 - 0.0
24/10:00am 30.2 31.6 18.6 49 7.5 NE 9 15 5 8 1015.9 - 0.0
24/09:30am 29.3 28.9 17.2 48 7.6 NNE 15 26 8 14 1016.3 - 0.0
24/09:00am 28.0 29.5 18.8 57 5.9 NNW 9 13 5 7 1016.4 1016.3 0.0
24/08:30am 29.6 31.0 18.7 52 7.0 E 9 15 5 8 1016.4 - 0.0
24/08:00am 27.4 29.0 19.2 61 5.3 NE 9 15 5 8 1016.6 - 0.0
24/07:30am 26.7 29.4 20.6 69 4.0 SSE 7 11 4 6 1016.6 - 0.0
24/07:00am 25.0 27.5 20.2 74 3.1 S 7 11 4 6 1016.6 - 0.0
24/06:30am 24.0 25.9 19.8 77 2.7 ESE 9 15 5 8 1016.5 - 0.0
24/06:00am 22.6 24.4 19.6 83 1.9 ESE 9 15 5 8 1016.0 1015.9 0.0
24/05:30am 22.1 23.8 19.4 85 1.7 SE 9 13 5 7 1015.8 - 0.0
24/05:00am 22.2 24.9 19.5 85 1.7 SE 4 7 2 4 1015.6 - 0.0
24/04:30am 22.5 24.4 19.7 84 1.8 SE 9 13 5 7 1015.5 - 0.0
24/04:00am 22.2 23.7 18.9 81 2.1 SE 9 11 5 6 1015.3 - 0.0
24/03:30am 21.1 23.0 18.9 87 1.4 ESE 7 9 4 5 1015.1 - 0.0
24/03:00am 21.4 23.4 18.7 84 1.7 SSE 6 9 3 5 1015.2 1015.1 0.0
24/02:30am 21.7 23.6 18.5 82 2.0 SSE 6 7 3 4 1015.1 - 0.0
24/02:00am 21.3 23.1 18.2 82 1.9 SSW 6 7 3 4 1015.3 - 0.0
24/01:30am 21.1 22.9 18.2 83 1.8 W 6 9 3 5 1015.3 - 0.0
24/01:00am 21.5 22.6 18.1 81 2.1 WSW 9 11 5 6 1015.4 - 0.0
24/12:30am 22.2 23.9 18.5 79 2.3 E 7 9 4 5 1015.5 - 0.0
24/12:00am 22.4 24.1 18.6 79 2.4 ENE 7 9 4 5 1015.8 1015.7 0.0

Other Formats:

Comma delimited format used in spreadsheet applications
http://www.bom.gov.au/fwo/IDQ60801/IDQ60801.94374.axf

JavaScript Object Notation format (JSON) in row-major order
http://www.bom.gov.au/fwo/IDQ60801/IDQ60801.94374.json